sensor_id;sensor_type;location;lat;lon;timestamp;temperature;humidity
22008;DHT22;11168;56.976;24.168;2023-09-18T00:01:22;12.40;99.90
22008;DHT22;11168;56.976;24.168;2023-09-18T00:03:50;12.30;99.90
22008;DHT22;11168;56.976;24.168;2023-09-18T00:06:17;12.30;99.90
22008;DHT22;11168;56.976;24.168;2023-09-18T00:08:45;12.30;99.90
22008;DHT22;11168;56.976;24.168;2023-09-18T00:11:12;12.20;99.90
22008;DHT22;11168;56.976;24.168;2023-09-18T00:13:40;12.20;99.90
22008;DHT22;11168;56.976;24.168;2023-09-18T00:16:07;12.20;99.90
22008;DHT22;11168;56.976;24.168;2023-09-18T00:18:35;12.20;99.90
22008;DHT22;11168;56.976;24.168;2023-09-18T00:21:02;12.10;99.90
22008;DHT22;11168;56.976;24.168;2023-09-18T00:23:30;12.10;99.90
22008;DHT22;11168;56.976;24.168;2023-09-18T00:25:58;12.10;99.90
22008;DHT22;11168;56.976;24.168;2023-09-18T00:28:26;12.00;99.90
22008;DHT22;11168;56.976;24.168;2023-09-18T00:30:54;12.00;99.90
22008;DHT22;11168;56.976;24.168;2023-09-18T00:33:21;11.90;99.90
22008;DHT22;11168;56.976;24.168;2023-09-18T00:35:50;11.90;99.90
22008;DHT22;11168;56.976;24.168;2023-09-18T00:38:18;11.90;99.90
22008;DHT22;11168;56.976;24.168;2023-09-18T00:40:46;11.90;99.90
22008;DHT22;11168;56.976;24.168;2023-09-18T00:43:14;11.80;99.90
22008;DHT22;11168;56.976;24.168;2023-09-18T00:45:45;11.80;99.90
22008;DHT22;11168;56.976;24.168;2023-09-18T00:48:14;11.80;99.90
22008;DHT22;11168;56.976;24.168;2023-09-18T00:50:46;11.80;99.90
22008;DHT22;11168;56.976;24.168;2023-09-18T00:53:17;11.70;99.90
22008;DHT22;11168;56.976;24.168;2023-09-18T00:55:47;11.70;99.90
22008;DHT22;11168;56.976;24.168;2023-09-18T00:58:16;11.70;99.90
22008;DHT22;11168;56.976;24.168;2023-09-18T01:00:44;11.70;99.90
22008;DHT22;11168;56.976;24.168;2023-09-18T01:03:12;11.60;99.90
22008;DHT22;11168;56.976;24.168;2023-09-18T01:05:40;11.60;99.90
22008;DHT22;11168;56.976;24.168;2023-09-18T01:08:08;11.60;99.90
22008;DHT22;11168;56.976;24.168;2023-09-18T01:11:02;11.50;99.90
22008;DHT22;11168;56.976;24.168;2023-09-18T01:13:45;11.50;99.90
22008;DHT22;11168;56.976;24.168;2023-09-18T01:16:15;11.50;99.90
22008;DHT22;11168;56.976;24.168;2023-09-18T01:18:50;11.50;99.90
22008;DHT22;11168;56.976;24.168;2023-09-18T01:21:19;11.50;99.90
22008;DHT22;11168;56.976;24.168;2023-09-18T01:23:48;11.40;99.90
22008;DHT22;11168;56.976;24.168;2023-09-18T01:26:17;11.40;99.90
22008;DHT22;11168;56.976;24.168;2023-09-18T01:28:44;11.40;99.90
22008;DHT22;11168;56.976;24.168;2023-09-18T01:31:14;11.40;99.90
22008;DHT22;11168;56.976;24.168;2023-09-18T01:33:44;11.30;99.90
22008;DHT22;11168;56.976;24.168;2023-09-18T01:36:16;11.30;99.90
22008;DHT22;11168;56.976;24.168;2023-09-18T01:38:45;11.30;99.90
22008;DHT22;11168;56.976;24.168;2023-09-18T01:41:13;11.30;99.90
22008;DHT22;11168;56.976;24.168;2023-09-18T01:43:41;11.30;99.90
22008;DHT22;11168;56.976;24.168;2023-09-18T01:46:08;11.30;99.90
22008;DHT22;11168;56.976;24.168;2023-09-18T01:48:36;11.30;99.90
22008;DHT22;11168;56.976;24.168;2023-09-18T01:51:06;11.30;99.90
22008;DHT22;11168;56.976;24.168;2023-09-18T01:53:34;11.30;99.90
22008;DHT22;11168;56.976;24.168;2023-09-18T01:56:02;11.20;99.90
22008;DHT22;11168;56.976;24.168;2023-09-18T01:58:29;11.20;99.90
22008;DHT22;11168;56.976;24.168;2023-09-18T02:01:00;11.20;99.90
22008;DHT22;11168;56.976;24.168;2023-09-18T02:03:28;11.20;99.90
22008;DHT22;11168;56.976;24.168;2023-09-18T02:06:16;11.20;99.90
22008;DHT22;11168;56.976;24.168;2023-09-18T02:08:44;11.20;99.90
22008;DHT22;11168;56.976;24.168;2023-09-18T02:11:12;11.20;99.90
22008;DHT22;11168;56.976;24.168;2023-09-18T02:13:39;11.20;99.90
22008;DHT22;11168;56.976;24.168;2023-09-18T02:16:07;11.20;99.90
22008;DHT22;11168;56.976;24.168;2023-09-18T02:18:36;11.20;99.90
22008;DHT22;11168;56.976;24.168;2023-09-18T02:21:03;11.20;99.90
22008;DHT22;11168;56.976;24.168;2023-09-18T02:23:32;11.20;99.90
22008;DHT22;11168;56.976;24.168;2023-09-18T02:25:59;11.20;99.90
22008;DHT22;11168;56.976;24.168;2023-09-18T02:28:27;11.20;99.90
22008;DHT22;11168;56.976;24.168;2023-09-18T02:30:54;11.20;99.90
22008;DHT22;11168;56.976;24.168;2023-09-18T02:33:23;11.20;99.90
22008;DHT22;11168;56.976;24.168;2023-09-18T02:35:50;11.20;99.90
22008;DHT22;11168;56.976;24.168;2023-09-18T02:38:18;11.20;99.90
22008;DHT22;11168;56.976;24.168;2023-09-18T02:40:45;11.10;99.90
22008;DHT22;11168;56.976;24.168;2023-09-18T02:43:13;11.20;99.90
22008;DHT22;11168;56.976;24.168;2023-09-18T02:45:40;11.10;99.90
22008;DHT22;11168;56.976;24.168;2023-09-18T02:48:08;11.10;99.90
22008;DHT22;11168;56.976;24.168;2023-09-18T02:50:35;11.10;99.90
22008;DHT22;11168;56.976;24.168;2023-09-18T02:53:06;11.10;99.90
22008;DHT22;11168;56.976;24.168;2023-09-18T02:55:34;11.10;99.90
22008;DHT22;11168;56.976;24.168;2023-09-18T02:58:02;11.20;99.90
22008;DHT22;11168;56.976;24.168;2023-09-18T03:00:29;11.20;99.90
22008;DHT22;11168;56.976;24.168;2023-09-18T03:03:10;11.20;99.90
22008;DHT22;11168;56.976;24.168;2023-09-18T03:05:38;11.20;99.90
22008;DHT22;11168;56.976;24.168;2023-09-18T03:08:06;11.30;99.90
22008;DHT22;11168;56.976;24.168;2023-09-18T03:10:35;11.30;99.90
22008;DHT22;11168;56.976;24.168;2023-09-18T03:13:04;11.30;99.90
22008;DHT22;11168;56.976;24.168;2023-09-18T03:15:32;11.40;99.90
22008;DHT22;11168;56.976;24.168;2023-09-18T03:18:01;11.40;99.90
22008;DHT22;11168;56.976;24.168;2023-09-18T03:20:30;11.40;99.90
22008;DHT22;11168;56.976;24.168;2023-09-18T03:22:59;11.40;99.90
22008;DHT22;11168;56.976;24.168;2023-09-18T03:25:27;11.40;99.90
22008;DHT22;11168;56.976;24.168;2023-09-18T03:28:14;11.50;99.90
22008;DHT22;11168;56.976;24.168;2023-09-18T03:30:42;11.50;99.90
22008;DHT22;11168;56.976;24.168;2023-09-18T03:33:09;11.40;99.90
22008;DHT22;11168;56.976;24.168;2023-09-18T03:35:51;11.40;99.90
22008;DHT22;11168;56.976;24.168;2023-09-18T03:38:22;11.30;99.90
22008;DHT22;11168;56.976;24.168;2023-09-18T03:40:49;11.30;99.90
22008;DHT22;11168;56.976;24.168;2023-09-18T03:43:17;11.20;99.90
22008;DHT22;11168;56.976;24.168;2023-09-18T03:45:45;11.20;99.90
22008;DHT22;11168;56.976;24.168;2023-09-18T03:48:13;11.10;99.90
22008;DHT22;11168;56.976;24.168;2023-09-18T03:50:41;11.10;99.90
22008;DHT22;11168;56.976;24.168;2023-09-18T03:53:09;11.10;99.90
22008;DHT22;11168;56.976;24.168;2023-09-18T03:55:38;11.10;99.90
22008;DHT22;11168;56.976;24.168;2023-09-18T03:58:05;11.00;99.90
22008;DHT22;11168;56.976;24.168;2023-09-18T04:00:33;11.10;99.90
22008;DHT22;11168;56.976;24.168;2023-09-18T04:03:01;11.10;99.90
22008;DHT22;11168;56.976;24.168;2023-09-18T04:05:29;11.00;99.90
22008;DHT22;11168;56.976;24.168;2023-09-18T04:07:56;11.00;99.90
22008;DHT22;11168;56.976;24.168;2023-09-18T04:10:25;11.00;99.90
22008;DHT22;11168;56.976;24.168;2023-09-18T04:12:53;10.90;99.90
22008;DHT22;11168;56.976;24.168;2023-09-18T04:15:21;10.90;99.90
22008;DHT22;11168;56.976;24.168;2023-09-18T04:17:50;10.90;99.90
22008;DHT22;11168;56.976;24.168;2023-09-18T04:20:17;10.90;99.90
22008;DHT22;11168;56.976;24.168;2023-09-18T04:22:47;10.90;99.90
22008;DHT22;11168;56.976;24.168;2023-09-18T04:25:17;10.90;99.90
22008;DHT22;11168;56.976;24.168;2023-09-18T04:27:47;10.90;99.90
22008;DHT22;11168;56.976;24.168;2023-09-18T04:30:17;10.90;99.90
22008;DHT22;11168;56.976;24.168;2023-09-18T04:32:46;10.90;99.90
22008;DHT22;11168;56.976;24.168;2023-09-18T04:35:14;10.90;99.90
22008;DHT22;11168;56.976;24.168;2023-09-18T04:37:42;11.00;99.90
22008;DHT22;11168;56.976;24.168;2023-09-18T04:40:10;10.90;99.90
22008;DHT22;11168;56.976;24.168;2023-09-18T04:42:39;10.90;99.90
22008;DHT22;11168;56.976;24.168;2023-09-18T04:45:10;11.00;99.90
22008;DHT22;11168;56.976;24.168;2023-09-18T04:47:38;11.00;99.90
22008;DHT22;11168;56.976;24.168;2023-09-18T04:50:06;11.00;99.90
22008;DHT22;11168;56.976;24.168;2023-09-18T04:52:39;11.10;99.90
22008;DHT22;11168;56.976;24.168;2023-09-18T04:55:12;11.10;99.90
22008;DHT22;11168;56.976;24.168;2023-09-18T04:57:40;11.20;99.90
22008;DHT22;11168;56.976;24.168;2023-09-18T05:00:08;11.20;99.90
22008;DHT22;11168;56.976;24.168;2023-09-18T05:02:44;11.20;99.90
22008;DHT22;11168;56.976;24.168;2023-09-18T05:05:12;11.20;99.90
22008;DHT22;11168;56.976;24.168;2023-09-18T05:07:41;11.30;99.90
22008;DHT22;11168;56.976;24.168;2023-09-18T05:10:09;11.30;99.90
22008;DHT22;11168;56.976;24.168;2023-09-18T05:12:39;11.40;99.90
22008;DHT22;11168;56.976;24.168;2023-09-18T05:15:08;11.40;99.90
22008;DHT22;11168;56.976;24.168;2023-09-18T05:17:46;11.40;99.90
22008;DHT22;11168;56.976;24.168;2023-09-18T05:20:16;11.50;99.90
22008;DHT22;11168;56.976;24.168;2023-09-18T05:22:45;11.50;99.90
22008;DHT22;11168;56.976;24.168;2023-09-18T05:25:13;11.50;99.90
22008;DHT22;11168;56.976;24.168;2023-09-18T05:27:44;11.60;99.90
22008;DHT22;11168;56.976;24.168;2023-09-18T05:30:19;11.60;99.90
22008;DHT22;11168;56.976;24.168;2023-09-18T05:32:51;11.70;99.90
22008;DHT22;11168;56.976;24.168;2023-09-18T05:35:18;11.80;99.90
22008;DHT22;11168;56.976;24.168;2023-09-18T05:37:46;11.80;99.90
22008;DHT22;11168;56.976;24.168;2023-09-18T05:40:14;11.90;99.90
22008;DHT22;11168;56.976;24.168;2023-09-18T05:42:42;11.90;99.90
22008;DHT22;11168;56.976;24.168;2023-09-18T05:45:11;12.00;99.90
22008;DHT22;11168;56.976;24.168;2023-09-18T05:47:39;12.10;99.90
22008;DHT22;11168;56.976;24.168;2023-09-18T05:50:09;12.10;99.90
22008;DHT22;11168;56.976;24.168;2023-09-18T05:52:37;12.20;99.90
22008;DHT22;11168;56.976;24.168;2023-09-18T05:55:05;12.20;99.90
22008;DHT22;11168;56.976;24.168;2023-09-18T05:57:34;12.30;99.90
22008;DHT22;11168;56.976;24.168;2023-09-18T06:00:04;12.40;99.90
22008;DHT22;11168;56.976;24.168;2023-09-18T06:02:32;12.40;99.90
22008;DHT22;11168;56.976;24.168;2023-09-18T06:05:01;12.50;99.90
22008;DHT22;11168;56.976;24.168;2023-09-18T06:07:29;12.60;99.90
22008;DHT22;11168;56.976;24.168;2023-09-18T06:09:58;12.60;99.90
22008;DHT22;11168;56.976;24.168;2023-09-18T06:12:26;12.60;99.90
22008;DHT22;11168;56.976;24.168;2023-09-18T06:14:53;12.70;99.90
22008;DHT22;11168;56.976;24.168;2023-09-18T06:17:21;12.80;99.90
22008;DHT22;11168;56.976;24.168;2023-09-18T06:19:49;12.80;99.90
22008;DHT22;11168;56.976;24.168;2023-09-18T06:22:17;12.90;99.90
22008;DHT22;11168;56.976;24.168;2023-09-18T06:24:45;12.90;99.90
22008;DHT22;11168;56.976;24.168;2023-09-18T06:27:13;12.90;99.90
22008;DHT22;11168;56.976;24.168;2023-09-18T06:29:41;13.00;99.90
22008;DHT22;11168;56.976;24.168;2023-09-18T06:32:10;13.10;99.90
22008;DHT22;11168;56.976;24.168;2023-09-18T06:34:38;13.10;99.90
22008;DHT22;11168;56.976;24.168;2023-09-18T06:37:07;13.10;99.90
22008;DHT22;11168;56.976;24.168;2023-09-18T06:39:35;13.20;99.90
22008;DHT22;11168;56.976;24.168;2023-09-18T06:42:03;13.30;99.90
22008;DHT22;11168;56.976;24.168;2023-09-18T06:44:31;13.30;99.90
22008;DHT22;11168;56.976;24.168;2023-09-18T06:46:59;13.40;99.90
22008;DHT22;11168;56.976;24.168;2023-09-18T06:49:26;13.50;99.90
22008;DHT22;11168;56.976;24.168;2023-09-18T06:51:55;13.80;99.90
22008;DHT22;11168;56.976;24.168;2023-09-18T06:54:23;13.90;99.90
22008;DHT22;11168;56.976;24.168;2023-09-18T06:56:51;14.20;99.90
22008;DHT22;11168;56.976;24.168;2023-09-18T06:59:19;14.80;99.90
22008;DHT22;11168;56.976;24.168;2023-09-18T07:01:46;15.50;99.90
22008;DHT22;11168;56.976;24.168;2023-09-18T07:04:14;16.30;99.90
22008;DHT22;11168;56.976;24.168;2023-09-18T07:06:42;17.00;99.90
22008;DHT22;11168;56.976;24.168;2023-09-18T07:09:09;17.40;99.90
22008;DHT22;11168;56.976;24.168;2023-09-18T07:11:39;18.10;99.90
22008;DHT22;11168;56.976;24.168;2023-09-18T07:14:07;18.50;99.90
22008;DHT22;11168;56.976;24.168;2023-09-18T07:16:35;18.60;99.90
22008;DHT22;11168;56.976;24.168;2023-09-18T07:19:03;18.90;99.90
22008;DHT22;11168;56.976;24.168;2023-09-18T07:21:32;19.30;99.90
22008;DHT22;11168;56.976;24.168;2023-09-18T07:24:02;19.70;99.90
22008;DHT22;11168;56.976;24.168;2023-09-18T07:26:30;20.10;99.90
22008;DHT22;11168;56.976;24.168;2023-09-18T07:28:58;19.90;99.90
22008;DHT22;11168;56.976;24.168;2023-09-18T07:31:28;20.20;99.90
22008;DHT22;11168;56.976;24.168;2023-09-18T07:33:55;20.50;99.90
22008;DHT22;11168;56.976;24.168;2023-09-18T07:36:23;21.00;99.90
22008;DHT22;11168;56.976;24.168;2023-09-18T07:38:51;20.90;99.90
22008;DHT22;11168;56.976;24.168;2023-09-18T07:41:19;21.20;99.90
22008;DHT22;11168;56.976;24.168;2023-09-18T07:43:48;21.50;99.90
22008;DHT22;11168;56.976;24.168;2023-09-18T07:46:15;21.40;99.90
22008;DHT22;11168;56.976;24.168;2023-09-18T07:48:43;22.00;99.90
22008;DHT22;11168;56.976;24.168;2023-09-18T07:51:11;21.80;99.90
22008;DHT22;11168;56.976;24.168;2023-09-18T07:53:40;21.80;99.90
22008;DHT22;11168;56.976;24.168;2023-09-18T07:56:08;21.90;99.90
22008;DHT22;11168;56.976;24.168;2023-09-18T07:58:37;22.20;99.90
22008;DHT22;11168;56.976;24.168;2023-09-18T08:01:06;21.70;99.90
22008;DHT22;11168;56.976;24.168;2023-09-18T08:03:33;22.30;99.90
22008;DHT22;11168;56.976;24.168;2023-09-18T08:06:01;23.10;99.90
22008;DHT22;11168;56.976;24.168;2023-09-18T08:08:32;23.50;99.90
22008;DHT22;11168;56.976;24.168;2023-09-18T08:11:07;24.50;99.90
22008;DHT22;11168;56.976;24.168;2023-09-18T08:13:38;23.90;99.90
22008;DHT22;11168;56.976;24.168;2023-09-18T08:16:06;23.60;99.90
22008;DHT22;11168;56.976;24.168;2023-09-18T08:18:35;23.60;99.90
22008;DHT22;11168;56.976;24.168;2023-09-18T08:21:03;24.30;99.90
22008;DHT22;11168;56.976;24.168;2023-09-18T08:23:31;24.80;99.90
22008;DHT22;11168;56.976;24.168;2023-09-18T08:26:00;25.90;99.90
22008;DHT22;11168;56.976;24.168;2023-09-18T08:28:28;25.10;99.90
22008;DHT22;11168;56.976;24.168;2023-09-18T08:30:56;25.40;99.90
22008;DHT22;11168;56.976;24.168;2023-09-18T08:33:24;26.20;99.90
22008;DHT22;11168;56.976;24.168;2023-09-18T08:35:53;27.00;99.90
22008;DHT22;11168;56.976;24.168;2023-09-18T08:38:21;27.20;99.90
22008;DHT22;11168;56.976;24.168;2023-09-18T08:40:49;27.40;99.90
22008;DHT22;11168;56.976;24.168;2023-09-18T08:43:18;28.00;99.90
22008;DHT22;11168;56.976;24.168;2023-09-18T08:45:52;27.30;99.90
22008;DHT22;11168;56.976;24.168;2023-09-18T08:48:23;27.30;99.90
22008;DHT22;11168;56.976;24.168;2023-09-18T08:50:51;27.70;99.90
22008;DHT22;11168;56.976;24.168;2023-09-18T08:53:19;28.00;99.90
22008;DHT22;11168;56.976;24.168;2023-09-18T08:55:46;27.80;99.90
22008;DHT22;11168;56.976;24.168;2023-09-18T08:58:15;28.30;99.90
22008;DHT22;11168;56.976;24.168;2023-09-18T09:00:47;28.60;99.90
22008;DHT22;11168;56.976;24.168;2023-09-18T09:03:15;27.80;99.90
22008;DHT22;11168;56.976;24.168;2023-09-18T09:05:42;28.30;99.90
22008;DHT22;11168;56.976;24.168;2023-09-18T09:08:10;28.00;99.90
22008;DHT22;11168;56.976;24.168;2023-09-18T09:10:37;28.40;99.90
22008;DHT22;11168;56.976;24.168;2023-09-18T09:13:06;28.90;99.90
22008;DHT22;11168;56.976;24.168;2023-09-18T09:15:45;29.40;99.90
22008;DHT22;11168;56.976;24.168;2023-09-18T09:18:17;30.20;99.90
22008;DHT22;11168;56.976;24.168;2023-09-18T09:21:01;31.30;99.90
22008;DHT22;11168;56.976;24.168;2023-09-18T09:23:44;31.00;99.90
22008;DHT22;11168;56.976;24.168;2023-09-18T09:26:14;30.60;99.90
22008;DHT22;11168;56.976;24.168;2023-09-18T09:28:43;31.20;99.90
22008;DHT22;11168;56.976;24.168;2023-09-18T09:31:11;31.20;99.90
22008;DHT22;11168;56.976;24.168;2023-09-18T09:33:50;31.60;99.90
22008;DHT22;11168;56.976;24.168;2023-09-18T09:36:21;31.80;99.90
22008;DHT22;11168;56.976;24.168;2023-09-18T09:38:55;31.20;99.90
22008;DHT22;11168;56.976;24.168;2023-09-18T09:41:25;31.50;99.90
22008;DHT22;11168;56.976;24.168;2023-09-18T09:43:57;31.70;99.90
22008;DHT22;11168;56.976;24.168;2023-09-18T09:46:25;31.80;99.90
22008;DHT22;11168;56.976;24.168;2023-09-18T09:49:04;31.80;99.90
22008;DHT22;11168;56.976;24.168;2023-09-18T09:51:33;30.50;99.90
22008;DHT22;11168;56.976;24.168;2023-09-18T09:54:01;29.70;99.90
22008;DHT22;11168;56.976;24.168;2023-09-18T09:56:49;29.50;99.90
22008;DHT22;11168;56.976;24.168;2023-09-18T09:59:19;30.10;99.90
22008;DHT22;11168;56.976;24.168;2023-09-18T10:01:47;28.70;99.90
22008;DHT22;11168;56.976;24.168;2023-09-18T10:04:18;28.90;99.90
22008;DHT22;11168;56.976;24.168;2023-09-18T10:06:58;30.00;99.90
22008;DHT22;11168;56.976;24.168;2023-09-18T10:09:26;29.50;99.90
22008;DHT22;11168;56.976;24.168;2023-09-18T10:11:57;29.80;99.90
22008;DHT22;11168;56.976;24.168;2023-09-18T10:14:29;29.60;99.90
22008;DHT22;11168;56.976;24.168;2023-09-18T10:17:15;28.70;99.90
22008;DHT22;11168;56.976;24.168;2023-09-18T10:22:30;29.00;99.90
22008;DHT22;11168;56.976;24.168;2023-09-18T10:25:11;29.50;99.90
22008;DHT22;11168;56.976;24.168;2023-09-18T10:27:41;28.60;99.90
22008;DHT22;11168;56.976;24.168;2023-09-18T10:30:09;29.70;99.90
22008;DHT22;11168;56.976;24.168;2023-09-18T10:32:41;29.30;99.90
22008;DHT22;11168;56.976;24.168;2023-09-18T10:35:10;29.70;99.90
22008;DHT22;11168;56.976;24.168;2023-09-18T10:37:41;28.70;99.90
22008;DHT22;11168;56.976;24.168;2023-09-18T10:40:09;28.00;99.90
22008;DHT22;11168;56.976;24.168;2023-09-18T10:42:41;27.10;99.90
22008;DHT22;11168;56.976;24.168;2023-09-18T10:45:10;27.00;99.90
22008;DHT22;11168;56.976;24.168;2023-09-18T10:47:40;27.10;99.90
22008;DHT22;11168;56.976;24.168;2023-09-18T10:50:09;26.90;99.90
22008;DHT22;11168;56.976;24.168;2023-09-18T10:52:42;27.10;99.90
22008;DHT22;11168;56.976;24.168;2023-09-18T10:55:13;27.80;99.90
22008;DHT22;11168;56.976;24.168;2023-09-18T10:57:58;27.00;99.90
22008;DHT22;11168;56.976;24.168;2023-09-18T11:00:31;27.30;99.90
22008;DHT22;11168;56.976;24.168;2023-09-18T11:03:15;26.50;99.90
22008;DHT22;11168;56.976;24.168;2023-09-18T11:05:46;26.00;99.90
22008;DHT22;11168;56.976;24.168;2023-09-18T11:13:34;26.30;99.90
22008;DHT22;11168;56.976;24.168;2023-09-18T11:16:03;26.70;99.90
22008;DHT22;11168;56.976;24.168;2023-09-18T11:18:39;26.90;99.90
22008;DHT22;11168;56.976;24.168;2023-09-18T11:21:11;26.20;99.90
22008;DHT22;11168;56.976;24.168;2023-09-18T11:23:39;26.80;99.90
22008;DHT22;11168;56.976;24.168;2023-09-18T11:26:15;27.50;99.90
22008;DHT22;11168;56.976;24.168;2023-09-18T11:28:48;27.60;99.90
22008;DHT22;11168;56.976;24.168;2023-09-18T11:31:17;26.50;99.90
22008;DHT22;11168;56.976;24.168;2023-09-18T11:33:44;27.10;99.90
22008;DHT22;11168;56.976;24.168;2023-09-18T11:36:14;27.70;99.90
22008;DHT22;11168;56.976;24.168;2023-09-18T11:38:58;28.00;99.90
22008;DHT22;11168;56.976;24.168;2023-09-18T11:41:34;28.00;99.90
22008;DHT22;11168;56.976;24.168;2023-09-18T11:46:55;27.50;99.90
22008;DHT22;11168;56.976;24.168;2023-09-18T11:49:23;27.10;99.90
22008;DHT22;11168;56.976;24.168;2023-09-18T11:51:54;26.60;99.90
22008;DHT22;11168;56.976;24.168;2023-09-18T11:54:25;26.00;99.90
22008;DHT22;11168;56.976;24.168;2023-09-18T11:56:55;25.70;99.90
22008;DHT22;11168;56.976;24.168;2023-09-18T11:59:37;25.30;99.90
22008;DHT22;11168;56.976;24.168;2023-09-18T12:02:10;24.90;99.90
22008;DHT22;11168;56.976;24.168;2023-09-18T12:04:38;24.80;99.90
22008;DHT22;11168;56.976;24.168;2023-09-18T12:07:06;24.70;99.90
22008;DHT22;11168;56.976;24.168;2023-09-18T12:09:35;24.60;99.90
22008;DHT22;11168;56.976;24.168;2023-09-18T12:12:05;23.90;99.90
22008;DHT22;11168;56.976;24.168;2023-09-18T12:14:33;23.50;99.90
22008;DHT22;11168;56.976;24.168;2023-09-18T12:17:01;23.70;99.90
22008;DHT22;11168;56.976;24.168;2023-09-18T12:19:32;23.60;99.90
22008;DHT22;11168;56.976;24.168;2023-09-18T12:22:01;23.50;99.90
22008;DHT22;11168;56.976;24.168;2023-09-18T12:24:35;23.40;99.90
22008;DHT22;11168;56.976;24.168;2023-09-18T12:27:03;23.30;99.90
22008;DHT22;11168;56.976;24.168;2023-09-18T12:29:32;23.40;99.90
22008;DHT22;11168;56.976;24.168;2023-09-18T12:31:59;23.30;99.90
22008;DHT22;11168;56.976;24.168;2023-09-18T12:34:29;23.00;99.90
22008;DHT22;11168;56.976;24.168;2023-09-18T12:36:57;22.80;99.90
22008;DHT22;11168;56.976;24.168;2023-09-18T12:39:24;22.50;99.90
22008;DHT22;11168;56.976;24.168;2023-09-18T12:41:58;22.20;99.90
22008;DHT22;11168;56.976;24.168;2023-09-18T12:44:26;22.20;99.90
22008;DHT22;11168;56.976;24.168;2023-09-18T12:46:53;22.00;99.90
22008;DHT22;11168;56.976;24.168;2023-09-18T12:49:21;21.80;99.90
22008;DHT22;11168;56.976;24.168;2023-09-18T12:52:00;21.60;99.90
22008;DHT22;11168;56.976;24.168;2023-09-18T12:54:42;21.50;99.90
22008;DHT22;11168;56.976;24.168;2023-09-18T12:57:15;21.50;99.90
22008;DHT22;11168;56.976;24.168;2023-09-18T12:59:42;21.40;99.90
22008;DHT22;11168;56.976;24.168;2023-09-18T13:02:13;21.50;99.90
22008;DHT22;11168;56.976;24.168;2023-09-18T13:04:41;21.10;99.90
22008;DHT22;11168;56.976;24.168;2023-09-18T13:07:14;20.90;99.90
22008;DHT22;11168;56.976;24.168;2023-09-18T13:09:42;20.80;99.90
22008;DHT22;11168;56.976;24.168;2023-09-18T13:12:09;20.90;99.90
22008;DHT22;11168;56.976;24.168;2023-09-18T13:14:59;21.00;99.90
22008;DHT22;11168;56.976;24.168;2023-09-18T13:17:40;20.90;99.90
22008;DHT22;11168;56.976;24.168;2023-09-18T13:20:13;20.90;99.90
22008;DHT22;11168;56.976;24.168;2023-09-18T13:22:42;20.80;99.90
22008;DHT22;11168;56.976;24.168;2023-09-18T13:25:10;20.70;99.90
22008;DHT22;11168;56.976;24.168;2023-09-18T13:27:39;20.70;99.90
22008;DHT22;11168;56.976;24.168;2023-09-18T13:30:08;20.70;99.90
22008;DHT22;11168;56.976;24.168;2023-09-18T13:32:37;20.80;99.90
22008;DHT22;11168;56.976;24.168;2023-09-18T13:35:07;20.90;99.90
22008;DHT22;11168;56.976;24.168;2023-09-18T13:37:35;20.90;99.90
22008;DHT22;11168;56.976;24.168;2023-09-18T13:40:02;21.00;99.90
22008;DHT22;11168;56.976;24.168;2023-09-18T13:42:33;21.10;99.90
22008;DHT22;11168;56.976;24.168;2023-09-18T13:45:01;21.10;99.90
22008;DHT22;11168;56.976;24.168;2023-09-18T13:47:29;21.10;99.90
22008;DHT22;11168;56.976;24.168;2023-09-18T13:49:56;21.00;99.90
22008;DHT22;11168;56.976;24.168;2023-09-18T13:52:24;20.80;99.90
22008;DHT22;11168;56.976;24.168;2023-09-18T13:54:51;20.70;99.90
22008;DHT22;11168;56.976;24.168;2023-09-18T13:57:19;20.70;99.90
22008;DHT22;11168;56.976;24.168;2023-09-18T13:59:48;20.70;99.90
22008;DHT22;11168;56.976;24.168;2023-09-18T14:02:16;20.70;99.90
22008;DHT22;11168;56.976;24.168;2023-09-18T14:04:43;20.70;99.90
22008;DHT22;11168;56.976;24.168;2023-09-18T14:07:11;20.50;99.90
22008;DHT22;11168;56.976;24.168;2023-09-18T14:09:38;20.50;99.90
22008;DHT22;11168;56.976;24.168;2023-09-18T14:12:06;20.40;99.90
22008;DHT22;11168;56.976;24.168;2023-09-18T14:14:36;20.40;99.90
22008;DHT22;11168;56.976;24.168;2023-09-18T14:17:03;20.40;99.90
22008;DHT22;11168;56.976;24.168;2023-09-18T14:19:30;20.40;99.90
22008;DHT22;11168;56.976;24.168;2023-09-18T14:21:58;20.30;99.90
22008;DHT22;11168;56.976;24.168;2023-09-18T14:24:31;20.20;99.90
22008;DHT22;11168;56.976;24.168;2023-09-18T14:27:01;20.20;99.90
22008;DHT22;11168;56.976;24.168;2023-09-18T14:29:29;20.10;99.90
22008;DHT22;11168;56.976;24.168;2023-09-18T14:31:57;20.00;99.90
22008;DHT22;11168;56.976;24.168;2023-09-18T14:34:24;20.00;99.90
22008;DHT22;11168;56.976;24.168;2023-09-18T14:36:51;20.00;99.90
22008;DHT22;11168;56.976;24.168;2023-09-18T14:39:19;20.00;99.90
22008;DHT22;11168;56.976;24.168;2023-09-18T14:41:46;20.10;99.90
22008;DHT22;11168;56.976;24.168;2023-09-18T14:44:14;20.10;99.90
22008;DHT22;11168;56.976;24.168;2023-09-18T14:46:41;20.10;99.90
22008;DHT22;11168;56.976;24.168;2023-09-18T14:49:10;20.20;99.90
22008;DHT22;11168;56.976;24.168;2023-09-18T14:51:37;20.20;99.90
22008;DHT22;11168;56.976;24.168;2023-09-18T14:54:04;20.20;99.90
22008;DHT22;11168;56.976;24.168;2023-09-18T14:56:31;20.20;99.90
22008;DHT22;11168;56.976;24.168;2023-09-18T14:58:59;20.30;99.90
22008;DHT22;11168;56.976;24.168;2023-09-18T15:01:26;20.30;99.90
22008;DHT22;11168;56.976;24.168;2023-09-18T15:03:53;20.20;99.90
22008;DHT22;11168;56.976;24.168;2023-09-18T15:06:20;20.10;99.90
22008;DHT22;11168;56.976;24.168;2023-09-18T15:08:47;20.00;99.90
22008;DHT22;11168;56.976;24.168;2023-09-18T15:11:15;19.90;99.90
22008;DHT22;11168;56.976;24.168;2023-09-18T15:13:46;19.90;99.90
22008;DHT22;11168;56.976;24.168;2023-09-18T15:16:13;19.80;99.90
22008;DHT22;11168;56.976;24.168;2023-09-18T15:18:40;19.70;99.90
22008;DHT22;11168;56.976;24.168;2023-09-18T15:21:07;19.60;99.90
22008;DHT22;11168;56.976;24.168;2023-09-18T15:23:34;19.60;99.90
22008;DHT22;11168;56.976;24.168;2023-09-18T15:26:01;19.60;99.90
22008;DHT22;11168;56.976;24.168;2023-09-18T15:28:47;19.50;99.90
22008;DHT22;11168;56.976;24.168;2023-09-18T15:31:14;19.50;99.90
22008;DHT22;11168;56.976;24.168;2023-09-18T15:33:41;19.40;99.90
22008;DHT22;11168;56.976;24.168;2023-09-18T15:36:09;19.40;99.90
22008;DHT22;11168;56.976;24.168;2023-09-18T15:38:36;19.40;99.90
22008;DHT22;11168;56.976;24.168;2023-09-18T15:41:03;19.40;99.90